createdAt,value
2018-06-03T00:01:37.173Z,19.90
2018-06-03T00:04:05.508Z,19.90
2018-06-03T00:06:37.081Z,19.70
2018-06-03T00:09:05.357Z,19.70
2018-06-03T00:12:40.299Z,19.60
2018-06-03T00:15:09.614Z,19.50
2018-06-03T00:17:38.900Z,19.30
2018-06-03T00:20:08.492Z,19.30
2018-06-03T00:22:37.757Z,19.40
2018-06-03T00:25:07.061Z,19.70
2018-06-03T00:27:36.389Z,19.60
2018-06-03T00:30:05.645Z,19.70
2018-06-03T00:32:34.931Z,19.60
2018-06-03T00:35:04.331Z,19.70
2018-06-03T00:37:33.577Z,19.60
2018-06-03T00:40:02.832Z,19.40
2018-06-03T00:42:32.095Z,19.50
2018-06-03T00:45:01.377Z,19.50
2018-06-03T00:47:30.606Z,19.80
2018-06-03T00:49:59.843Z,19.80
2018-06-03T00:52:29.251Z,19.90
2018-06-03T00:54:58.667Z,19.80
2018-06-03T00:57:28.066Z,19.80
2018-06-03T00:59:57.341Z,19.70
2018-06-03T01:02:27.364Z,19.60
2018-06-03T01:04:56.606Z,19.60
2018-06-03T01:07:26.780Z,19.50
2018-06-03T01:09:56.045Z,19.60
2018-06-03T01:12:25.293Z,19.70
2018-06-03T01:14:54.560Z,19.70
2018-06-03T01:17:23.798Z,19.70
2018-06-03T01:19:53.350Z,19.70
2018-06-03T01:22:22.692Z,19.70
2018-06-03T01:24:51.945Z,19.50
2018-06-03T01:27:21.257Z,19.30
2018-06-03T01:29:50.511Z,19.30
2018-06-03T01:32:19.757Z,19.30
2018-06-03T01:34:49.034Z,19.10
2018-06-03T01:37:18.293Z,19.30
2018-06-03T01:39:47.599Z,19.00
2018-06-03T01:42:16.910Z,19.10
2018-06-03T01:44:46.481Z,19.00
2018-06-03T01:47:16.024Z,18.90
2018-06-03T01:49:45.213Z,18.90
2018-06-03T01:52:14.467Z,18.80
2018-06-03T01:54:43.809Z,18.90
2018-06-03T01:57:13.086Z,19.00
2018-06-03T01:59:42.400Z,19.10
2018-06-03T02:02:11.675Z,19.00
2018-06-03T02:04:40.932Z,18.80
2018-06-03T02:07:10.158Z,18.90
2018-06-03T02:09:39.409Z,19.00
2018-06-03T02:12:08.687Z,18.80
2018-06-03T02:14:38.004Z,18.80
2018-06-03T02:17:07.270Z,18.80
2018-06-03T02:19:36.524Z,18.70
2018-06-03T02:22:05.999Z,18.70
2018-06-03T02:24:35.235Z,18.70
2018-06-03T02:27:04.538Z,18.60
2018-06-03T02:29:33.766Z,18.60
2018-06-03T02:32:03.016Z,18.80
2018-06-03T02:34:32.226Z,18.70
2018-06-03T02:37:01.860Z,18.60
2018-06-03T02:39:31.804Z,18.60
2018-06-03T02:42:01.067Z,18.50
2018-06-03T02:44:30.289Z,18.50
2018-06-03T02:46:59.542Z,18.50
2018-06-03T02:49:28.760Z,18.50
2018-06-03T02:51:58.025Z,18.40
2018-06-03T02:54:27.280Z,18.40
2018-06-03T02:56:56.521Z,18.30
2018-06-03T02:59:25.807Z,18.30
2018-06-03T03:01:55.171Z,18.40
2018-06-03T03:04:24.443Z,18.40
2018-06-03T03:06:53.653Z,18.40
2018-06-03T03:09:22.896Z,18.40
2018-06-03T03:11:52.261Z,18.40
2018-06-03T03:14:21.507Z,18.50
2018-06-03T03:16:50.781Z,18.50
2018-06-03T03:19:20.024Z,18.40
2018-06-03T03:21:49.296Z,18.50
2018-06-03T03:24:18.513Z,18.40
2018-06-03T03:26:47.780Z,18.50
2018-06-03T03:31:45.809Z,18.50
2018-06-03T03:34:15.054Z,18.50
2018-06-03T03:36:44.298Z,18.60
2018-06-03T03:39:13.824Z,18.50
2018-06-03T03:41:43.059Z,18.50
2018-06-03T03:44:12.358Z,18.60
2018-06-03T03:46:41.620Z,18.60
2018-06-03T03:49:11.592Z,18.40
2018-06-03T03:51:40.900Z,18.40
2018-06-03T03:54:10.195Z,18.40
2018-06-03T03:56:40.065Z,18.40
2018-06-03T03:59:09.316Z,18.40
2018-06-03T04:01:38.584Z,18.50
2018-06-03T04:04:07.884Z,18.50
2018-06-03T04:06:37.221Z,18.50
2018-06-03T04:09:06.913Z,18.70
2018-06-03T04:11:36.259Z,18.70
2018-06-03T04:14:05.761Z,18.70
2018-06-03T04:16:35.571Z,18.90
2018-06-03T04:19:04.918Z,19.10
2018-06-03T04:21:34.309Z,19.10
2018-06-03T04:24:04.137Z,19.20
2018-06-03T04:26:33.508Z,19.20
2018-06-03T04:29:02.764Z,19.30
2018-06-03T04:31:32.106Z,19.30
2018-06-03T04:34:01.397Z,19.30
2018-06-03T04:36:30.705Z,19.30
2018-06-03T04:38:59.911Z,19.30
2018-06-03T04:41:29.159Z,19.30
2018-06-03T04:43:58.371Z,19.20
2018-06-03T04:46:27.628Z,19.20
2018-06-03T04:48:56.889Z,19.30
2018-06-03T04:51:26.364Z,19.40
2018-06-03T04:53:55.611Z,19.60
2018-06-03T04:56:24.899Z,19.60
2018-06-03T04:58:54.268Z,19.60
2018-06-03T05:01:23.494Z,19.50
2018-06-03T05:03:52.748Z,19.50
2018-06-03T05:06:21.969Z,19.60
2018-06-03T05:08:51.319Z,19.50
2018-06-03T05:11:20.577Z,19.60
2018-06-03T05:16:23.593Z,19.60
2018-06-03T05:18:52.823Z,19.60
2018-06-03T05:21:22.100Z,19.90
2018-06-03T05:23:51.730Z,20.20
2018-06-03T05:26:21.881Z,20.30
2018-06-03T05:31:19.940Z,20.20
2018-06-03T05:33:49.215Z,20.30
2018-06-03T05:36:18.446Z,20.40
2018-06-03T05:38:47.731Z,20.40
2018-06-03T05:41:17.180Z,20.50
2018-06-03T05:43:46.436Z,20.60
2018-06-03T05:46:15.743Z,20.60
2018-06-03T05:48:45.448Z,20.60
2018-06-03T05:51:14.689Z,20.60
2018-06-03T05:53:43.901Z,20.60
2018-06-03T05:56:13.127Z,20.40
2018-06-03T05:58:42.753Z,20.50
2018-06-03T06:03:40.874Z,20.50
2018-06-03T06:06:10.307Z,20.70
2018-06-03T06:08:39.549Z,20.80
2018-06-03T06:11:08.792Z,21.00
2018-06-03T06:13:38.185Z,21.20
2018-06-03T06:16:07.439Z,21.30
2018-06-03T06:18:36.641Z,21.60
2018-06-03T06:21:06.021Z,21.90
2018-06-03T06:23:35.277Z,22.10
2018-06-03T06:26:04.572Z,22.30
2018-06-03T06:28:33.843Z,22.20
2018-06-03T06:31:03.092Z,22.30
2018-06-03T06:33:32.343Z,22.10
2018-06-03T06:36:01.605Z,22.00
2018-06-03T06:38:30.880Z,22.00
2018-06-03T06:41:00.154Z,21.90
2018-06-03T06:43:29.485Z,21.90
2018-06-03T06:45:58.736Z,21.80
2018-06-03T06:48:28.426Z,21.60
2018-06-03T06:50:58.275Z,21.70
2018-06-03T06:53:27.602Z,21.60
2018-06-03T06:55:56.877Z,21.60
2018-06-03T06:58:26.112Z,21.60
2018-06-03T07:00:55.468Z,21.70
2018-06-03T07:03:24.756Z,21.80
2018-06-03T07:05:54.727Z,21.70
2018-06-03T07:08:24.020Z,21.40
2018-06-03T07:10:53.237Z,21.50
2018-06-03T07:13:22.564Z,21.60
2018-06-03T07:15:51.813Z,21.60
2018-06-03T07:18:21.229Z,21.60
2018-06-03T07:20:50.489Z,21.60
2018-06-03T07:23:20.130Z,21.60
2018-06-03T07:25:49.664Z,21.50
2018-06-03T07:28:18.969Z,21.60
2018-06-03T07:30:48.180Z,21.70
2018-06-03T07:33:17.437Z,21.60
2018-06-03T07:35:46.679Z,21.60
2018-06-03T07:38:15.990Z,21.70
2018-06-03T07:40:45.274Z,21.70
2018-06-03T07:43:14.580Z,21.80
2018-06-03T07:45:44.358Z,21.80
2018-06-03T07:48:13.645Z,21.80
2018-06-03T07:50:42.927Z,22.00
2018-06-03T07:53:12.344Z,22.10
2018-06-03T07:55:41.951Z,22.30
2018-06-03T07:58:11.392Z,22.40
2018-06-03T08:00:40.694Z,22.70
2018-06-03T08:03:10.083Z,23.00
2018-06-03T08:05:39.395Z,23.20
2018-06-03T08:08:08.685Z,23.60
2018-06-03T08:10:37.987Z,24.10
2018-06-03T08:13:07.828Z,24.70
2018-06-03T08:15:37.132Z,25.30
2018-06-03T08:18:08.043Z,25.70
2018-06-03T08:20:37.352Z,25.80
2018-06-03T08:23:06.876Z,25.70
2018-06-03T08:25:36.152Z,25.60
2018-06-03T08:28:05.462Z,25.60
2018-06-03T08:33:04.311Z,25.30
2018-06-03T08:35:33.629Z,25.00
2018-06-03T08:38:02.864Z,25.00
2018-06-03T08:40:32.153Z,25.10
2018-06-03T08:43:01.565Z,25.20
2018-06-03T08:45:30.816Z,25.30
2018-06-03T08:48:00.137Z,25.30
2018-06-03T08:50:30.163Z,25.10
2018-06-03T08:53:00.021Z,25.00
2018-06-03T08:55:29.316Z,24.70
2018-06-03T08:57:59.163Z,24.70
2018-06-03T09:00:28.643Z,24.90
2018-06-03T09:02:57.891Z,25.00
2018-06-03T09:05:27.199Z,25.30
2018-06-03T09:07:56.504Z,25.70
2018-06-03T09:10:25.805Z,25.70
2018-06-03T09:12:55.350Z,25.70
2018-06-03T09:15:24.664Z,25.80
2018-06-03T09:17:54.037Z,26.10
2018-06-03T09:20:24.016Z,26.30
2018-06-03T09:22:53.265Z,26.30
2018-06-03T09:25:22.701Z,26.30
2018-06-03T09:27:52.348Z,26.10
2018-06-03T09:30:21.740Z,26.20
2018-06-03T09:32:51.305Z,25.70
2018-06-03T09:35:20.578Z,25.50
2018-06-03T09:37:49.833Z,25.00
2018-06-03T09:40:19.176Z,24.80
2018-06-03T09:42:49.133Z,24.70
2018-06-03T09:45:18.443Z,24.80
2018-06-03T09:47:47.780Z,24.60
2018-06-03T09:50:17.458Z,24.60
2018-06-03T09:52:46.756Z,24.20
2018-06-03T09:55:16.011Z,24.30
2018-06-03T09:57:46.059Z,24.20
2018-06-03T10:00:16.628Z,24.20
2018-06-03T10:02:45.798Z,24.20
2018-06-03T10:05:15.089Z,24.10
2018-06-03T10:07:44.304Z,24.20
2018-06-03T10:10:13.647Z,24.00
2018-06-03T10:12:43.080Z,24.00
2018-06-03T10:15:12.359Z,23.90
2018-06-03T10:17:41.645Z,24.00
2018-06-03T10:20:10.921Z,24.10
2018-06-03T10:22:40.244Z,24.20
2018-06-03T10:25:09.641Z,24.30
2018-06-03T10:27:39.575Z,24.30
2018-06-03T10:30:08.934Z,24.30
2018-06-03T10:32:38.192Z,24.20
2018-06-03T10:35:07.461Z,24.10
2018-06-03T10:37:36.690Z,24.10
2018-06-03T10:40:06.008Z,24.20
2018-06-03T10:42:35.278Z,24.20
2018-06-03T10:47:33.470Z,24.40
2018-06-03T10:50:02.735Z,24.60
2018-06-03T10:52:32.264Z,24.90
2018-06-03T10:55:01.653Z,25.20
2018-06-03T10:57:31.428Z,25.90
2018-06-03T11:00:00.745Z,26.60
2018-06-03T11:02:30.331Z,27.60
2018-06-03T11:04:59.626Z,28.20
2018-06-03T11:07:29.059Z,28.50
2018-06-03T11:09:59.958Z,29.00
2018-06-03T11:12:29.224Z,29.40
2018-06-03T11:14:58.564Z,29.40
2018-06-03T11:17:27.885Z,29.30
2018-06-03T11:19:57.099Z,29.40
2018-06-03T11:22:26.400Z,29.30
2018-06-03T11:24:55.688Z,29.30
2018-06-03T11:27:24.959Z,29.00
2018-06-03T11:29:54.636Z,28.70
2018-06-03T11:32:24.216Z,28.40
2018-06-03T11:34:53.470Z,28.90
2018-06-03T11:37:22.731Z,29.60
2018-06-03T11:39:52.149Z,29.80
2018-06-03T11:42:22.120Z,30.10
2018-06-03T11:44:51.487Z,30.40
2018-06-03T11:47:21.358Z,30.20
2018-06-03T11:49:50.769Z,29.70
2018-06-03T11:52:20.035Z,29.30
2018-06-03T11:54:49.689Z,28.90
2018-06-03T11:57:18.975Z,28.80
2018-06-03T11:59:48.254Z,28.70
2018-06-03T12:02:18.681Z,29.20
2018-06-03T12:07:16.880Z,30.10
2018-06-03T12:09:46.204Z,30.40
2018-06-03T12:12:15.513Z,30.80
2018-06-03T12:14:44.828Z,30.80
2018-06-03T12:17:14.153Z,31.30
2018-06-03T12:19:43.713Z,31.10
2018-06-03T12:22:13.145Z,31.30
2018-06-03T12:24:42.764Z,31.20
2018-06-03T12:27:12.604Z,30.90
2018-06-03T12:29:41.856Z,30.80
2018-06-03T12:32:11.123Z,31.10
2018-06-03T12:34:40.367Z,31.30
2018-06-03T12:37:09.699Z,31.70
2018-06-03T12:39:39.489Z,31.90
2018-06-03T12:42:08.815Z,32.10
2018-06-03T12:44:38.041Z,32.10
2018-06-03T12:47:07.304Z,32.20
2018-06-03T12:49:36.608Z,31.90
2018-06-03T12:52:06.008Z,31.40
2018-06-03T12:54:35.337Z,30.90
2018-06-03T12:57:04.979Z,30.70
2018-06-03T12:59:34.319Z,30.40
2018-06-03T13:02:03.621Z,30.30
2018-06-03T13:04:32.881Z,30.40
2018-06-03T13:07:02.163Z,30.20
2018-06-03T13:09:31.409Z,30.20
2018-06-03T13:12:00.721Z,30.10
2018-06-03T13:14:29.972Z,30.30
2018-06-03T13:16:59.306Z,30.60
2018-06-03T13:19:28.541Z,30.50
2018-06-03T13:21:57.816Z,30.80
2018-06-03T13:24:27.816Z,31.10
2018-06-03T13:26:57.109Z,31.30
2018-06-03T13:29:26.400Z,31.50
2018-06-03T13:31:55.809Z,31.70
2018-06-03T13:34:25.005Z,31.90
2018-06-03T13:36:54.315Z,31.90
2018-06-03T13:39:23.626Z,31.70
2018-06-03T13:41:53.126Z,31.40
2018-06-03T13:44:22.381Z,31.20
2018-06-03T13:46:51.669Z,30.70
2018-06-03T13:49:20.920Z,30.40
2018-06-03T13:51:50.224Z,30.40
2018-06-03T13:54:19.428Z,30.10
2018-06-03T13:56:48.802Z,29.50
2018-06-03T13:59:18.060Z,29.30
2018-06-03T14:01:47.528Z,29.10
2018-06-03T14:04:16.849Z,28.90
2018-06-03T14:06:46.146Z,28.60
2018-06-03T14:09:15.452Z,28.30
2018-06-03T14:11:44.775Z,28.10
2018-06-03T14:14:14.044Z,27.80
2018-06-03T14:16:43.403Z,27.60
2018-06-03T14:19:12.663Z,27.50
2018-06-03T14:21:41.922Z,27.50
2018-06-03T14:24:11.225Z,27.50
2018-06-03T14:26:40.451Z,27.60
2018-06-03T14:29:09.719Z,27.70
2018-06-03T14:31:39.040Z,28.00
2018-06-03T14:34:08.399Z,28.20
2018-06-03T14:36:37.761Z,28.20
2018-06-03T14:39:08.361Z,28.00
2018-06-03T14:41:37.661Z,28.00
2018-06-03T14:44:06.566Z,28.10
2018-06-03T14:46:36.556Z,28.10
2018-06-03T14:49:05.884Z,28.10
2018-06-03T14:51:35.232Z,28.10
2018-06-03T14:54:04.614Z,28.00
2018-06-03T14:56:33.877Z,27.80
2018-06-03T14:59:03.199Z,27.60
2018-06-03T15:01:32.548Z,27.50
2018-06-03T15:04:01.787Z,27.40
2018-06-03T15:06:31.020Z,27.30
2018-06-03T15:09:00.321Z,27.30
2018-06-03T15:11:29.639Z,27.20
2018-06-03T15:13:58.983Z,27.00
2018-06-03T15:16:28.448Z,26.90
2018-06-03T15:18:57.773Z,26.80
2018-06-03T15:21:27.037Z,26.80
2018-06-03T15:23:56.412Z,26.70
2018-06-03T15:26:25.676Z,26.60
2018-06-03T15:28:54.986Z,26.60
2018-06-03T15:31:24.243Z,26.60
2018-06-03T15:33:53.519Z,26.50
2018-06-03T15:36:22.723Z,26.50
2018-06-03T15:38:51.990Z,26.40
2018-06-03T15:41:21.641Z,26.40
2018-06-03T15:43:51.058Z,26.40
2018-06-03T15:46:20.608Z,26.40
2018-06-03T15:48:49.911Z,26.40
2018-06-03T15:51:19.180Z,26.30
2018-06-03T15:53:48.511Z,26.30
2018-06-03T15:56:17.869Z,26.30
2018-06-03T15:58:52.610Z,26.30
2018-06-03T16:01:21.846Z,26.30
2018-06-03T16:03:51.183Z,26.30
2018-06-03T16:06:20.440Z,26.20
2018-06-03T16:08:49.745Z,26.20
2018-06-03T16:11:19.375Z,26.20
2018-06-03T16:13:48.680Z,26.00
2018-06-03T16:16:18.047Z,26.00
2018-06-03T16:18:47.251Z,25.90
2018-06-03T16:21:16.524Z,25.80
2018-06-03T16:23:45.829Z,25.80
2018-06-03T16:26:16.069Z,25.70
2018-06-03T16:28:45.341Z,25.70
2018-06-03T16:31:14.620Z,25.60
2018-06-03T16:33:43.981Z,25.50
2018-06-03T16:36:13.292Z,25.30
2018-06-03T16:38:42.644Z,25.30
2018-06-03T16:41:11.940Z,25.10
2018-06-03T16:43:41.269Z,25.00
2018-06-03T16:46:10.553Z,25.00
2018-06-03T16:48:39.914Z,25.00
2018-06-03T16:51:09.265Z,24.90
2018-06-03T16:53:38.555Z,24.80
2018-06-03T16:56:07.811Z,24.80
2018-06-03T16:58:37.168Z,24.70
2018-06-03T17:01:07.656Z,24.70
2018-06-03T17:03:36.961Z,24.60
2018-06-03T17:06:07.342Z,24.60
2018-06-03T17:08:36.708Z,24.40
2018-06-03T17:11:06.028Z,24.40
2018-06-03T17:13:35.448Z,24.40
2018-06-03T17:16:04.757Z,24.40
2018-06-03T17:18:34.131Z,24.20
2018-06-03T17:23:32.383Z,24.20
2018-06-03T17:26:01.621Z,24.20
2018-06-03T17:28:30.896Z,24.20
2018-06-03T17:31:00.211Z,24.10
2018-06-03T17:33:29.544Z,24.10
2018-06-03T17:35:58.803Z,24.00
2018-06-03T17:38:28.077Z,24.00
2018-06-03T17:40:57.411Z,23.90
2018-06-03T17:43:26.725Z,23.90
2018-06-03T17:45:56.301Z,23.80
2018-06-03T17:48:25.596Z,23.70
2018-06-03T17:50:54.912Z,23.70
2018-06-03T17:53:24.257Z,23.70
2018-06-03T17:55:53.558Z,23.70
2018-06-03T17:58:22.809Z,23.60
2018-06-03T18:00:52.053Z,23.50
2018-06-03T18:03:21.278Z,23.50
2018-06-03T18:05:50.605Z,23.50
2018-06-03T18:08:19.878Z,23.40
2018-06-03T18:10:49.159Z,23.40
2018-06-03T18:13:18.421Z,23.30
2018-06-03T18:15:47.656Z,23.30
2018-06-03T18:18:16.957Z,23.30
2018-06-03T18:20:46.329Z,23.20
2018-06-03T18:23:15.637Z,23.20
2018-06-03T18:25:44.976Z,23.10
2018-06-03T18:28:15.003Z,23.10
2018-06-03T18:30:45.050Z,23.00
2018-06-03T18:33:14.429Z,23.00
2018-06-03T18:35:43.730Z,22.90
2018-06-03T18:38:13.042Z,22.90
2018-06-03T18:40:42.734Z,22.80
2018-06-03T18:43:12.094Z,22.70
2018-06-03T18:45:41.448Z,22.70
2018-06-03T18:48:10.782Z,22.60
2018-06-03T18:50:40.124Z,22.50
2018-06-03T18:53:09.456Z,22.40
2018-06-03T18:55:39.136Z,22.40
2018-06-03T18:58:09.217Z,22.30
2018-06-03T19:00:39.541Z,22.20
2018-06-03T19:03:08.932Z,22.00
2018-06-03T19:05:38.278Z,21.90
2018-06-03T19:08:07.743Z,21.80
2018-06-03T19:10:37.237Z,21.70
2018-06-03T19:13:06.932Z,21.60
2018-06-03T19:15:36.321Z,21.50
2018-06-03T19:18:06.025Z,21.50
2018-06-03T19:20:35.767Z,21.30
2018-06-03T19:23:05.139Z,21.20
2018-06-03T19:25:34.550Z,21.20
2018-06-03T19:28:04.040Z,21.10
2018-06-03T19:30:33.728Z,21.00
2018-06-03T19:33:03.081Z,20.90
2018-06-03T19:35:32.537Z,20.80
2018-06-03T19:38:01.975Z,20.70
2018-06-03T19:40:31.337Z,20.60
2018-06-03T19:43:00.658Z,20.50
2018-06-03T19:45:29.963Z,20.50
2018-06-03T19:47:59.277Z,20.40
2018-06-03T19:50:28.586Z,20.30
2018-06-03T19:52:57.892Z,20.30
2018-06-03T19:55:27.761Z,20.20
2018-06-03T19:57:57.776Z,20.10
2018-06-03T20:00:27.569Z,20.00
2018-06-03T20:02:56.768Z,20.00
2018-06-03T20:05:26.188Z,19.90
2018-06-03T20:07:55.690Z,19.90
2018-06-03T20:10:25.043Z,19.80
2018-06-03T20:12:54.581Z,19.80
2018-06-03T20:15:23.901Z,19.70
2018-06-03T20:17:54.220Z,19.80
2018-06-03T20:20:23.531Z,19.70
2018-06-03T20:22:52.800Z,19.60
2018-06-03T20:25:22.228Z,19.50
2018-06-03T20:27:51.512Z,19.50
2018-06-03T20:30:20.796Z,19.50
2018-06-03T20:32:50.216Z,19.40
2018-06-03T20:35:19.528Z,19.40
2018-06-03T20:37:48.785Z,19.40
2018-06-03T20:40:18.065Z,19.30
2018-06-03T20:42:48.005Z,19.30
2018-06-03T20:45:17.372Z,19.30
2018-06-03T20:47:46.639Z,19.30
2018-06-03T20:50:15.922Z,19.20
2018-06-03T20:52:45.279Z,19.10
2018-06-03T20:55:14.567Z,19.10
2018-06-03T20:57:43.868Z,19.20
2018-06-03T21:00:13.889Z,19.10
2018-06-03T21:02:43.692Z,19.20
2018-06-03T21:05:12.996Z,19.20
2018-06-03T21:07:43.014Z,19.20
2018-06-03T21:10:12.364Z,19.30
2018-06-03T21:12:41.651Z,19.10
2018-06-03T21:15:11.551Z,19.00
2018-06-03T21:17:40.873Z,18.90
2018-06-03T21:20:10.134Z,19.00
2018-06-03T21:22:39.433Z,19.00
2018-06-03T21:25:08.721Z,18.90
2018-06-03T21:27:38.012Z,18.90
2018-06-03T21:32:36.088Z,18.90
2018-06-03T21:35:06.273Z,18.80
2018-06-03T21:37:35.625Z,18.80
2018-06-03T21:40:04.944Z,18.70
2018-06-03T21:42:34.254Z,18.80
2018-06-03T21:45:03.545Z,18.70
2018-06-03T21:50:01.625Z,18.60
2018-06-03T21:52:30.974Z,18.50
2018-06-03T21:55:00.371Z,18.50
2018-06-03T21:57:29.630Z,18.40
2018-06-03T21:59:58.991Z,18.40
2018-06-03T22:02:28.253Z,18.40
2018-06-03T22:04:57.492Z,18.40
2018-06-03T22:07:26.732Z,18.40
2018-06-03T22:09:56.316Z,18.40
2018-06-03T22:12:25.663Z,18.40
2018-06-03T22:14:55.716Z,18.50
2018-06-03T22:17:25.164Z,18.40
2018-06-03T22:19:54.424Z,18.20
2018-06-03T22:22:23.712Z,18.20
2018-06-03T22:24:53.631Z,18.20
2018-06-03T22:27:22.909Z,18.50
2018-06-03T22:29:52.136Z,18.50
2018-06-03T22:32:21.431Z,18.50
2018-06-03T22:34:50.692Z,18.60
2018-06-03T22:37:19.964Z,18.40
2018-06-03T22:39:49.271Z,18.40
2018-06-03T22:44:47.531Z,18.40
2018-06-03T22:47:16.812Z,18.30
2018-06-03T22:49:46.139Z,18.20
2018-06-03T22:52:15.479Z,18.20
2018-06-03T22:54:44.732Z,18.20
2018-06-03T22:57:52.072Z,18.20
2018-06-03T23:00:22.327Z,18.20
2018-06-03T23:02:56.955Z,18.20
2018-06-03T23:05:26.237Z,18.20
2018-06-03T23:07:55.534Z,18.20
2018-06-03T23:10:24.824Z,18.60
2018-06-03T23:12:54.251Z,18.90
2018-06-03T23:20:21.444Z,19.30
2018-06-03T23:25:20.368Z,19.20
2018-06-03T23:27:49.600Z,19.30
2018-06-03T23:30:18.895Z,19.40
2018-06-03T23:32:48.757Z,19.30
2018-06-03T23:35:18.147Z,19.30
2018-06-03T23:37:47.447Z,19.20
2018-06-03T23:40:16.727Z,19.20
2018-06-03T23:42:46.108Z,19.10
2018-06-03T23:45:15.448Z,19.10
2018-06-03T23:47:44.688Z,19.10
2018-06-03T23:50:13.992Z,18.90
2018-06-03T23:52:43.765Z,19.00
2018-06-03T23:55:13.041Z,19.00
2018-06-03T23:57:42.252Z,18.90
